NACIONALNO OTVORENO PRVENSTVO HRVATSKE U KARTINGU
1. NAGRADA OPG VRANOVIĆ '10
Čakovec-Belica, 04.-05.09.2010.

KLASA 0
Poz. S.b. Vozač Klub Nac. Krug Vrijeme Zaostatak Bod.
1. 7 Tin Vorkapić KK Koprivnica HR 5 6:03,984 0:00,000 -
2. 4 Dorian Vargović Cobra Virovitica HR 5 6:06,093 0:02,109 -
3. 11 Erik Trstenjak AKK Podravina Koprivnica HR 5 6:16,183 0:12,199 -
4. 9 Jan Tisaj KK Koprivnica HR 5 6:16,448 0:12,464 -
5. 8 Filip Vuković Cobra Virovitica HR 5 6:17,037 0:13,053 -
6. 10 Luka Tomašić KK Koprivnica HR 5 6:17,100 0:13,116 -
7. 12 Matea Turk AK Info Kart HR 5 6:18,202 0:14,218 -
 
KLASA I - 1. UTRKA
Poz. S.b. Vozač Klub Nac. Krug Vrijeme Zaostatak Bod.
1. 102 Muhammad Pličanić AK Info Kart HR 10 9:34,811 0:00,000 20
2. 112 Matija Kovačić KK 1 Zagreb HR 10 9:36,183 0:01,372 15
3. 111 Jan Pokos AK Speedy HR 10 9:45,795 0:10,984 12
4. 106 Mihael Meretaj Cobra Virovitica HR 10 10:25,972 0:51,161 10
 
KLASA I - 2. UTRKA
Poz. S.b. Vozač Klub Nac. Krug Vrijeme Zaostatak Bod.
1. 111 Jan Pokos AK Speedy HR 10 9:37,781 0:00,000 20
2. 102 Muhammad Pličanić AK Info Kart HR 10 9:38,065 0:00,284 15
3. 112 Matija Kovačić KK 1 Zagreb HR 10 9:38,567 0:00,786 12
4. 106 Mihael Meretaj Cobra Virovitica HR 10 10:22,700 0:44,919 10
 
KLASA II - 1. UTRKA
Poz. S.b. Vozač Klub Nac. Krug Vrijeme Zaostatak Bod.
1. 206 Damian Sekulić Cobra Virovitica HR 10 9:04,581 0:00,000 20
2. 201 Juraj Kovačić KK 1 Zagreb HR 10 9:14,893 0:10,312 15
3. 210 Luka Mavrin KK 1 Zagreb HR 10 9:19,855 0:15,274 12
4. 207 Fran Tisaj KK Koprivnica HR 10 9:23,030 0:18,449 10
 
KLASA II - 2. UTRKA
Poz. S.b. Vozač Klub Nac. Krug Vrijeme Zaostatak Bod.
1. 201 Juraj Kovačić KK 1 Zagreb HR 10 9:00,026 0:00,000 20
2. 206 Damian Sekulić Cobra Virovitica HR 10 9:01,119 0:01,093 15
3. 210 Luka Mavrin KK 1 Zagreb HR 10 9:08,567 0:08,541 12
4. 207 Fran Tisaj KK Koprivnica HR 10 9:24,381 0:24,355 10
 
KLASA V - 1. UTRKA
Poz. S.b. Vozač Klub Nac. Krug Vrijeme Zaostatak Bod.
1. 515 Nikola Belohradski AKK Zanatlija HR 13 10:08,762 0:00,000 20
2. 501 Karlo Golub KK 1 Zagreb HR 13 10:12,340 0:03,578 15
3. 510 Tomislav Pavlić KK 1 Zagreb HR 13 10:41,563 0:32,801 12
4. 502 Sven Gorup AKK Zanatlija HR 11 9:11,935 2 kruga 10
 
KLASA V - 2. UTRKA
Poz. S.b. Vozač Klub Nac. Krug Vrijeme Zaostatak Bod.
1. 515 Nikola Belohradski AKK Zanatlija HR 13 10:11,970 0:00,000 20
2. 501 Karlo Golub KK 1 Zagreb HR 13 10:15,730 0:03,760 15
3. 510 Tomislav Pavlić KK 1 Zagreb HR 13 10:19,779 0:07,809 12
4. 502 Sven Gorup AKK Zanatlija HR 9 7:19,000 4 kruga 10
 
KLASA VII - 1. UTRKA
Poz. S.b. Vozač Klub Nac. Krug Vrijeme Zaostatak Bod.
1. 720 Nedjeljko Vucelić KK 1 Zagreb HR 15 11:25,635 0:00,000 20
2. 703 Žarko Martinjak KK Koprivnica HR 15 11:38,388 0:12,753 15
3. 707 Renato Dujmović AMK Buzet HR 15 11:43,936 0:18,301 12
4. 708 Siniša Mišić Cobra Virovitica HR 14 11:37,970 1 krug 10
5. 719 Tomislav Lovrenc AKK Podravina Koprivnica HR 14 11:38,219 1 krug 8
- 705 Zlatko Banić SAK Split HR 4 odustao 6
 
KLASA VII - 2. UTRKA
Poz. S.b. Vozač Klub Nac. Krug Vrijeme Zaostatak Bod.
1. 720 Nedjeljko Vucelić KK 1 Zagreb HR 15 11:43,997 0:00,000 20
2. 707 Renato Dujmović AMK Buzet HR 15 11:57,469 0:13,472 15
3. 703 Žarko Martinjak KK Koprivnica HR 15 11:58,122 0:14,125 12
4. 719 Tomislav Lovrenc AKK Podravina Koprivnica HR 15 12:16,853 0:32,856 10
5. 708 Siniša Mišić Cobra Virovitica HR 14 12:00,133 1 krug 8
6. 705 Zlatko Banić SAK Split HR 13 12:43,768 2 kruga 6
 
KLASA VIII - 1. UTRKA
Poz. S.b. Vozač Klub Nac. Krug Vrijeme Zaostatak Bod.
1. 801 Samir Smailagić AK Info Kart HR 13 11:30,461 0:00,000 20
2. 809 Ivan Žovan KK 1 Zagreb HR 13 11:46,054 0:15,593 15
3. 808 Krunoslav Žovan KK 1 Zagreb HR 13 11:47,300 0:16,839 12
4. 810 Nikola Carević KK 1 Zagreb HR 13 11:48,672 0:18,211 10
 
KLASA VIII - 2. UTRKA
Poz. S.b. Vozač Klub Nac. Krug Vrijeme Zaostatak Bod.
1. 801 Samir Smailagić AK Info Kart HR 13 11:32,784 0:00,000 20
2. 809 Ivan Žovan KK 1 Zagreb HR 13 11:46,970 0:14,186 15
3. 810 Nikola Carević KK 1 Zagreb HR 13 11:47,034 0:14,250 12
4. 808 Krunoslav Žovan KK 1 Zagreb HR 13 11:52,921 0:20,137 10
 
PRVENSTVO HRVATSKE